Tarbert, United Kingdom
Current Conditions -  °F | °C
As of 12:20 PM on Thursday 29 Jan 2015 (Local Time) from EGEC Reporting Station
Scattered Clouds Scattered Clouds  
Wind Chill: 30°   Ceiling: Unl
Heat Index: 41°   Visibility: 6mi
Dew Point: 32°   Wind: 28mph
Humidity: 70%   Direction: 280°W
Pressure: 28.76"   Gusts: NA
Location:  55.86°N, 5.42°W
Report Text: EGEC 291220Z 28024KT 9999 SCT020 SCT048 05/00 Q0974
Loading
Personal Weather Stations






























Interactive Weather Map New forecast layout! Learn more

10-Day Weather Forecast

Advertisements
Track Severe Weather on mobile